createdAt,value
2023-01-08T00:01:31.401Z,12.35
2023-01-08T00:03:58.475Z,12.82
2023-01-08T00:06:25.594Z,12.40
2023-01-08T00:08:52.816Z,12.45
2023-01-08T00:11:19.941Z,12.85
2023-01-08T00:13:47.046Z,11.90
2023-01-08T00:16:17.973Z,11.48
2023-01-08T00:18:46.713Z,12.55
2023-01-08T00:21:14.385Z,10.98
2023-01-08T00:23:41.412Z,11.52
2023-01-08T00:26:11.057Z,11.65
2023-01-08T00:28:39.680Z,11.77
2023-01-08T00:31:12.907Z,11.82
2023-01-08T00:33:41.391Z,11.65
2023-01-08T00:36:43.951Z,11.85
2023-01-08T00:39:09.179Z,10.80
2023-01-08T00:41:36.509Z,12.48
2023-01-08T00:44:03.608Z,13.23
2023-01-08T00:46:30.848Z,12.20
2023-01-08T00:48:57.882Z,13.20
2023-01-08T00:51:26.209Z,13.27
2023-01-08T00:53:53.659Z,12.80
2023-01-08T00:56:20.572Z,12.93
2023-01-08T00:58:47.738Z,13.38
2023-01-08T01:01:15.843Z,13.57
2023-01-08T01:03:43.564Z,13.55
2023-01-08T01:06:13.262Z,12.65
2023-01-08T01:08:41.159Z,12.68
2023-01-08T01:11:28.361Z,13.63
2023-01-08T01:13:57.144Z,12.55
2023-01-08T01:16:25.345Z,12.55
2023-01-08T01:18:53.556Z,12.68
2023-01-08T01:21:26.265Z,12.85
2023-01-08T01:23:56.942Z,11.93
2023-01-08T01:26:25.530Z,14.55
2023-01-08T01:28:55.982Z,12.93
2023-01-08T01:31:25.227Z,11.98
2023-01-08T01:33:52.933Z,12.98
2023-01-08T01:36:24.314Z,12.07
2023-01-08T01:38:55.537Z,12.55
2023-01-08T01:41:29.242Z,12.48
2023-01-08T01:44:00.579Z,11.90
2023-01-08T01:46:40.506Z,11.52
2023-01-08T01:49:14.349Z,13.00
2023-01-08T01:52:00.908Z,12.50
2023-01-08T01:54:31.150Z,11.95
2023-01-08T01:57:00.922Z,12.25
2023-01-08T02:00:15.262Z,11.77
2023-01-08T02:02:42.984Z,12.40
2023-01-08T02:05:13.103Z,12.55
2023-01-08T02:08:08.092Z,11.95
2023-01-08T02:10:58.021Z,11.43
2023-01-08T02:13:49.157Z,12.05
2023-01-08T02:16:45.715Z,13.23
2023-01-08T02:19:42.549Z,12.52
2023-01-08T02:22:46.202Z,12.25
2023-01-08T02:28:01.720Z,12.77
2023-01-08T02:30:30.313Z,12.13
2023-01-08T02:32:57.419Z,12.35
2023-01-08T02:35:26.849Z,12.07
2023-01-08T02:37:53.996Z,12.15
2023-01-08T02:40:44.669Z,11.48
2023-01-08T02:43:20.831Z,12.63
2023-01-08T02:45:58.362Z,13.32
2023-01-08T02:48:46.169Z,12.98
2023-01-08T02:51:30.769Z,12.15
2023-01-08T02:54:04.644Z,11.48
2023-01-08T02:56:37.139Z,12.13
2023-01-08T03:01:35.987Z,13.43
2023-01-08T03:04:36.195Z,13.60
2023-01-08T03:07:03.784Z,14.18
2023-01-08T03:09:31.465Z,13.57
2023-01-08T03:12:19.235Z,14.93
2023-01-08T03:15:04.377Z,13.40
2023-01-08T03:17:36.833Z,13.75
2023-01-08T03:20:13.282Z,13.55
2023-01-08T03:22:45.076Z,12.85
2023-01-08T03:25:15.192Z,13.23
2023-01-08T03:27:51.145Z,13.25
2023-01-08T03:30:20.972Z,13.82
2023-01-08T03:32:51.003Z,14.23
2023-01-08T03:35:23.316Z,14.18
2023-01-08T03:40:40.346Z,15.05
2023-01-08T03:43:07.556Z,15.73
2023-01-08T03:45:38.851Z,16.17
2023-01-08T03:48:09.977Z,15.63
2023-01-08T03:50:37.929Z,14.30
2023-01-08T03:53:04.954Z,16.25
2023-01-08T03:55:32.151Z,15.48
2023-01-08T03:57:59.201Z,15.63
2023-01-08T04:00:26.419Z,16.05
2023-01-08T04:02:53.451Z,15.48
2023-01-08T04:05:20.440Z,16.23
2023-01-08T04:07:47.336Z,14.85
2023-01-08T04:10:14.303Z,15.43
2023-01-08T04:12:43.563Z,15.80
2023-01-08T04:15:11.138Z,16.15
2023-01-08T04:17:38.113Z,17.52
2023-01-08T04:20:06.241Z,16.10
2023-01-08T04:22:33.324Z,15.68
2023-01-08T04:25:00.246Z,15.40
2023-01-08T04:27:27.402Z,15.30
2023-01-08T04:29:54.348Z,15.95
2023-01-08T04:32:21.315Z,15.63
2023-01-08T04:34:48.313Z,14.60
2023-01-08T04:37:15.447Z,15.68
2023-01-08T04:39:42.445Z,16.35
2023-01-08T04:42:09.352Z,16.10
2023-01-08T04:44:36.352Z,16.65
2023-01-08T04:47:03.385Z,17.30
2023-01-08T04:49:30.827Z,16.35
2023-01-08T04:51:57.753Z,15.48
2023-01-08T04:54:24.780Z,15.85
2023-01-08T04:56:52.261Z,16.00
2023-01-08T04:59:19.326Z,16.20
2023-01-08T05:01:46.657Z,15.55
2023-01-08T05:04:13.623Z,15.68
2023-01-08T05:06:40.563Z,15.30
2023-01-08T05:09:07.553Z,16.80
2023-01-08T05:11:39.677Z,15.40
2023-01-08T05:14:06.654Z,16.63
2023-01-08T05:16:33.831Z,15.23
2023-01-08T05:19:00.821Z,16.02
2023-01-08T05:21:38.183Z,16.25
2023-01-08T05:24:05.624Z,16.40
2023-01-08T05:26:36.155Z,15.13
2023-01-08T05:29:03.612Z,16.75
2023-01-08T05:31:30.701Z,15.10
2023-01-08T05:33:59.378Z,15.55
2023-01-08T05:36:26.397Z,16.55
2023-01-08T05:38:53.426Z,15.63
2023-01-08T05:41:20.340Z,17.02
2023-01-08T05:43:47.261Z,17.17
2023-01-08T05:46:14.285Z,17.05
2023-01-08T05:48:42.803Z,16.90
2023-01-08T05:51:12.605Z,16.73
2023-01-08T05:53:39.570Z,16.42
2023-01-08T05:56:10.496Z,17.20
2023-01-08T05:58:38.249Z,16.73
2023-01-08T06:01:16.219Z,16.17
2023-01-08T06:03:43.639Z,17.05
2023-01-08T06:06:11.418Z,17.75
2023-01-08T06:08:39.063Z,16.05
2023-01-08T06:11:08.641Z,17.77
2023-01-08T06:13:37.868Z,17.58
2023-01-08T06:16:05.416Z,16.27
2023-01-08T06:18:32.991Z,16.00
2023-01-08T06:21:00.137Z,19.02
2023-01-08T06:23:27.229Z,15.95
2023-01-08T06:25:56.705Z,17.75
2023-01-08T06:28:24.409Z,18.40
2023-01-08T06:30:51.747Z,18.10
2023-01-08T06:33:21.324Z,18.30
2023-01-08T06:35:48.964Z,18.80
2023-01-08T06:38:19.268Z,18.80
2023-01-08T06:40:48.943Z,18.08
2023-01-08T06:43:16.162Z,19.88
2023-01-08T06:45:43.196Z,17.45
2023-01-08T06:48:10.276Z,15.93
2023-01-08T06:50:37.348Z,18.48
2023-01-08T06:53:04.785Z,18.05
2023-01-08T06:55:31.836Z,17.42
2023-01-08T06:57:59.449Z,16.73
2023-01-08T07:00:27.338Z,16.10
2023-01-08T07:02:55.356Z,17.10
2023-01-08T07:05:23.097Z,16.75
2023-01-08T07:07:50.848Z,18.05
2023-01-08T07:10:19.896Z,15.57
2023-01-08T07:12:47.481Z,17.50
2023-01-08T07:15:15.808Z,15.93
2023-01-08T07:17:42.847Z,17.33
2023-01-08T07:20:10.961Z,17.48
2023-01-08T07:22:38.116Z,16.60
2023-01-08T07:25:06.128Z,16.50
2023-01-08T07:27:33.184Z,16.98
2023-01-08T07:30:00.378Z,16.48
2023-01-08T07:32:27.529Z,15.63
2023-01-08T07:34:54.768Z,17.10
2023-01-08T07:37:21.991Z,18.33
2023-01-08T07:39:49.129Z,17.77
2023-01-08T07:42:16.238Z,16.15
2023-01-08T07:44:43.203Z,14.90
2023-01-08T07:47:10.677Z,15.98
2023-01-08T07:49:38.213Z,14.23
2023-01-08T07:52:05.310Z,15.45
2023-01-08T07:54:32.575Z,16.02
2023-01-08T07:56:59.516Z,15.00
2023-01-08T07:59:26.564Z,15.18
2023-01-08T08:01:53.620Z,16.55
2023-01-08T08:04:20.683Z,16.25
2023-01-08T08:06:47.635Z,15.02
2023-01-08T08:09:14.730Z,14.70
2023-01-08T08:11:41.836Z,16.42
2023-01-08T08:14:08.948Z,16.77
2023-01-08T08:16:36.016Z,15.20
2023-01-08T08:19:03.046Z,15.60
2023-01-08T08:21:30.891Z,13.95
2023-01-08T08:23:58.062Z,15.63
2023-01-08T08:26:25.092Z,14.25
2023-01-08T08:28:52.214Z,15.10
2023-01-08T08:31:19.239Z,14.60
2023-01-08T08:33:46.279Z,13.32
2023-01-08T08:36:13.566Z,14.75
2023-01-08T08:38:41.938Z,15.02
2023-01-08T08:41:08.995Z,13.35
2023-01-08T08:43:36.083Z,13.45
2023-01-08T08:46:03.041Z,13.63
2023-01-08T08:48:30.087Z,12.07
2023-01-08T08:50:57.095Z,13.88
2023-01-08T08:53:27.758Z,14.00
2023-01-08T08:55:55.060Z,12.38
2023-01-08T08:58:22.207Z,13.20
2023-01-08T09:00:49.156Z,14.18
2023-01-08T09:03:16.817Z,12.93
2023-01-08T09:05:44.218Z,13.20
2023-01-08T09:08:12.806Z,13.43
2023-01-08T09:10:43.961Z,12.40
2023-01-08T09:13:11.522Z,11.93
2023-01-08T09:15:39.184Z,13.00
2023-01-08T09:18:06.447Z,12.73
2023-01-08T09:20:33.684Z,11.32
2023-01-08T09:23:03.132Z,11.23
2023-01-08T09:25:31.065Z,12.93
2023-01-08T09:28:08.249Z,12.13
2023-01-08T09:30:35.506Z,12.45
2023-01-08T09:33:04.374Z,11.57
2023-01-08T09:35:33.305Z,11.30
2023-01-08T09:38:00.652Z,11.63
2023-01-08T09:41:01.530Z,10.35
2023-01-08T09:43:33.477Z,11.30
2023-01-08T09:46:05.755Z,12.48
2023-01-08T09:48:39.049Z,12.35
2023-01-08T09:51:15.272Z,11.50
2023-01-08T09:53:44.050Z,11.35
2023-01-08T09:56:18.939Z,11.02
2023-01-08T09:58:50.751Z,11.68
2023-01-08T10:01:26.259Z,11.32
2023-01-08T10:04:18.403Z,11.35
2023-01-08T10:07:37.435Z,11.82
2023-01-08T10:10:38.811Z,11.30
2023-01-08T10:13:29.399Z,10.75
2023-01-08T10:16:30.609Z,10.73
2023-01-08T10:19:55.463Z,10.55
2023-01-08T10:22:31.712Z,9.93
2023-01-08T10:25:14.681Z,9.85
2023-01-08T10:28:00.949Z,9.32
2023-01-08T10:30:31.066Z,10.32
2023-01-08T10:33:05.882Z,9.43
2023-01-08T10:39:40.606Z,9.50
2023-01-08T10:42:30.646Z,10.60
2023-01-08T10:46:18.170Z,9.27
2023-01-08T10:48:50.928Z,9.88
2023-01-08T10:51:27.707Z,10.60
2023-01-08T10:54:01.193Z,10.82
2023-01-08T10:56:40.459Z,10.30
2023-01-08T10:59:20.089Z,10.98
2023-01-08T11:01:50.661Z,9.25
2023-01-08T11:04:41.793Z,9.65
2023-01-08T11:07:32.472Z,9.60
2023-01-08T11:11:06.579Z,10.38
2023-01-08T11:13:41.590Z,9.95
2023-01-08T11:16:10.827Z,9.30
2023-01-08T11:18:50.689Z,9.98
2023-01-08T11:21:27.891Z,10.38
2023-01-08T11:24:13.582Z,9.55
2023-01-08T11:26:46.438Z,9.50
2023-01-08T11:29:29.426Z,9.27
2023-01-08T11:32:25.195Z,10.05
2023-01-08T11:34:52.453Z,10.10
2023-01-08T11:37:28.571Z,10.18
2023-01-08T11:39:56.973Z,9.98
2023-01-08T11:43:10.670Z,9.60
2023-01-08T11:46:04.078Z,10.25
2023-01-08T11:49:15.249Z,10.68
2023-01-08T11:52:34.192Z,10.93
2023-01-08T11:55:55.842Z,10.98
2023-01-08T11:58:52.044Z,11.40
2023-01-08T12:02:03.066Z,11.85
2023-01-08T12:05:03.835Z,10.90
2023-01-08T12:08:03.975Z,11.07
2023-01-08T12:10:39.277Z,9.75
2023-01-08T12:13:42.292Z,10.45
2023-01-08T12:19:22.868Z,10.63
2023-01-08T12:22:28.113Z,10.13
2023-01-08T12:25:22.550Z,9.80
2023-01-08T12:28:07.570Z,9.57
2023-01-08T12:30:48.754Z,10.00
2023-01-08T12:33:32.752Z,9.80
2023-01-08T12:36:09.336Z,8.77
2023-01-08T12:38:43.264Z,9.82
2023-01-08T12:41:18.520Z,9.95
2023-01-08T12:44:00.581Z,9.23
2023-01-08T12:46:34.167Z,10.35
2023-01-08T12:49:04.469Z,8.93
2023-01-08T12:51:55.944Z,9.63
2023-01-08T12:54:49.042Z,9.15
2023-01-08T12:58:56.513Z,9.77
2023-01-08T13:02:17.552Z,9.00
2023-01-08T13:05:36.150Z,9.15
2023-01-08T13:08:27.546Z,9.25
2023-01-08T13:10:55.917Z,7.95
2023-01-08T13:14:13.095Z,8.75
2023-01-08T13:16:44.588Z,8.68
2023-01-08T13:19:41.436Z,8.80
2023-01-08T13:22:31.784Z,8.13
2023-01-08T13:25:36.350Z,10.27
2023-01-08T13:31:22.723Z,8.80
2023-01-08T13:33:54.714Z,9.32
2023-01-08T13:36:24.686Z,9.70
2023-01-08T13:39:11.832Z,10.25
2023-01-08T13:41:56.519Z,9.68
2023-01-08T13:44:36.204Z,10.20
2023-01-08T13:47:16.696Z,9.80
2023-01-08T13:49:53.310Z,10.13
2023-01-08T13:52:45.156Z,10.70
2023-01-08T13:55:22.180Z,9.40
2023-01-08T13:57:58.853Z,9.80
2023-01-08T14:00:41.221Z,9.48
2023-01-08T14:06:18.014Z,9.10
2023-01-08T14:08:56.761Z,9.10
2023-01-08T14:11:30.859Z,8.52
2023-01-08T14:13:58.384Z,9.45
2023-01-08T14:16:26.002Z,10.45
2023-01-08T14:18:59.737Z,10.05
2023-01-08T14:21:27.265Z,9.88
2023-01-08T14:23:54.423Z,9.85
2023-01-08T14:26:41.488Z,11.20
2023-01-08T14:29:19.724Z,10.07
2023-01-08T14:31:56.267Z,9.55
2023-01-08T14:34:28.511Z,10.52
2023-01-08T14:36:57.027Z,10.80
2023-01-08T14:39:33.916Z,9.80
2023-01-08T14:42:50.116Z,11.35
2023-01-08T14:45:32.666Z,11.00
2023-01-08T14:48:31.814Z,11.52
2023-01-08T14:51:08.305Z,12.73
2023-01-08T14:53:41.811Z,11.23
2023-01-08T14:56:16.089Z,13.05
2023-01-08T14:58:45.657Z,12.50
2023-01-08T15:01:25.713Z,12.60
2023-01-08T15:04:20.320Z,13.40
2023-01-08T15:06:50.037Z,13.50
2023-01-08T15:09:32.371Z,12.18
2023-01-08T15:12:04.176Z,12.18
2023-01-08T15:14:33.600Z,12.95
2023-01-08T15:17:12.636Z,11.60
2023-01-08T15:19:58.395Z,11.77
2023-01-08T15:22:31.473Z,11.85
2023-01-08T15:25:19.377Z,10.25
2023-01-08T15:28:03.180Z,11.25
2023-01-08T15:30:46.198Z,11.43
2023-01-08T15:33:23.799Z,11.52
2023-01-08T15:35:51.672Z,12.18
2023-01-08T15:41:56.407Z,12.32
2023-01-08T15:44:26.278Z,13.75
2023-01-08T15:46:57.285Z,12.45
2023-01-08T15:49:27.687Z,12.93
2023-01-08T15:51:57.179Z,13.23
2023-01-08T15:54:42.799Z,12.45
2023-01-08T15:58:17.613Z,13.18
2023-01-08T16:01:17.227Z,12.52
2023-01-08T16:04:10.646Z,10.73
2023-01-08T16:06:38.269Z,11.45
2023-01-08T16:09:05.589Z,10.52
2023-01-08T16:11:37.271Z,11.00
2023-01-08T16:14:11.074Z,10.38
2023-01-08T16:16:38.416Z,10.43
2023-01-08T16:19:05.565Z,10.75
2023-01-08T16:25:23.431Z,10.35
2023-01-08T16:28:12.070Z,10.98
2023-01-08T16:34:22.160Z,12.02
2023-01-08T16:37:51.708Z,11.63
2023-01-08T16:45:09.890Z,10.18
2023-01-08T16:49:07.611Z,10.88
2023-01-08T16:51:38.378Z,11.63
2023-01-08T16:54:33.535Z,11.93
2023-01-08T16:57:00.777Z,10.57
2023-01-08T16:59:27.854Z,11.68
2023-01-08T17:01:55.559Z,11.63
2023-01-08T17:17:48.210Z,12.43
2023-01-08T17:20:24.671Z,11.50
2023-01-08T17:23:16.036Z,12.55
2023-01-08T17:25:43.241Z,10.43
2023-01-08T17:28:11.503Z,12.65
2023-01-08T17:30:45.288Z,11.65
2023-01-08T17:33:26.163Z,12.25
2023-01-08T17:35:59.286Z,11.48
2023-01-08T17:38:33.886Z,11.25
2023-01-08T17:44:14.266Z,10.93
2023-01-08T17:46:59.260Z,11.73
2023-01-08T17:49:26.424Z,14.05
2023-01-08T17:51:53.739Z,14.23
2023-01-08T17:54:22.467Z,13.25
2023-01-08T17:56:50.671Z,14.00
2023-01-08T17:59:18.609Z,12.32
2023-01-08T18:01:47.015Z,15.63
2023-01-08T18:04:15.127Z,14.27
2023-01-08T18:06:43.360Z,13.90
2023-01-08T18:09:12.748Z,15.82
2023-01-08T18:11:42.151Z,15.75
2023-01-08T18:14:13.890Z,15.80
2023-01-08T18:16:45.639Z,17.07
2023-01-08T18:19:15.894Z,15.30
2023-01-08T18:21:44.647Z,14.75
2023-01-08T18:24:12.920Z,16.35
2023-01-08T18:26:41.457Z,16.10
2023-01-08T18:29:08.997Z,17.65
2023-01-08T18:31:36.239Z,18.23
2023-01-08T18:34:03.946Z,18.98
2023-01-08T18:36:31.003Z,20.25
2023-01-08T18:38:58.266Z,18.90
2023-01-08T18:41:44.352Z,19.27
2023-01-08T18:44:12.042Z,17.42
2023-01-08T18:46:39.291Z,20.67
2023-01-08T18:49:06.575Z,19.63
2023-01-08T18:51:34.266Z,20.90
2023-01-08T18:54:03.037Z,19.13
2023-01-08T18:56:33.993Z,22.35
2023-01-08T18:59:03.461Z,21.67
2023-01-08T19:01:31.050Z,22.02
2023-01-08T19:03:58.492Z,22.80
2023-01-08T19:06:26.009Z,22.83
2023-01-08T19:08:53.292Z,21.98
2023-01-08T19:11:21.709Z,22.55
2023-01-08T19:13:48.811Z,21.85
2023-01-08T19:16:18.494Z,23.65
2023-01-08T19:18:50.843Z,23.50
2023-01-08T19:21:19.488Z,24.15
2023-01-08T19:23:48.294Z,25.98
2023-01-08T19:26:16.741Z,23.55
2023-01-08T19:28:44.547Z,23.23
2023-01-08T19:31:18.005Z,23.30
2023-01-08T19:33:46.329Z,22.05
2023-01-08T19:36:16.019Z,22.83
2023-01-08T19:38:44.516Z,21.35
2023-01-08T19:41:31.264Z,21.00
2023-01-08T19:43:59.157Z,21.67
2023-01-08T19:46:26.924Z,21.08
2023-01-08T19:48:58.136Z,21.88
2023-01-08T19:51:26.316Z,20.67
2023-01-08T19:53:54.055Z,20.38
2023-01-08T19:56:21.021Z,20.52
2023-01-08T19:58:48.585Z,19.90
2023-01-08T20:01:20.265Z,20.15
2023-01-08T20:03:48.489Z,20.27
2023-01-08T20:06:22.886Z,19.38
2023-01-08T20:08:54.115Z,19.45
2023-01-08T20:11:23.272Z,20.47
2023-01-08T20:13:51.830Z,19.35
2023-01-08T20:16:27.131Z,20.52
2023-01-08T20:19:02.341Z,19.60
2023-01-08T20:21:29.503Z,19.25
2023-01-08T20:24:02.390Z,19.80
2023-01-08T20:26:31.894Z,20.52
2023-01-08T20:28:59.602Z,20.35
2023-01-08T20:31:30.602Z,18.85
2023-01-08T20:33:59.981Z,20.30
2023-01-08T20:36:31.068Z,19.98
2023-01-08T20:39:03.503Z,21.23
2023-01-08T20:43:58.014Z,19.85
2023-01-08T20:46:28.632Z,18.63
2023-01-08T20:48:59.847Z,19.10
2023-01-08T20:51:27.179Z,19.77
2023-01-08T20:53:54.560Z,19.80
2023-01-08T20:56:21.715Z,19.08
2023-01-08T20:58:52.713Z,19.70
2023-01-08T21:01:23.592Z,19.42
2023-01-08T21:03:56.363Z,20.17
2023-01-08T21:06:27.172Z,19.73
2023-01-08T21:08:59.961Z,20.75
2023-01-08T21:11:28.011Z,23.77
2023-01-08T21:13:56.150Z,21.42
2023-01-08T21:16:27.042Z,22.80
2023-01-08T21:18:54.752Z,21.63
2023-01-08T21:21:29.716Z,21.27
2023-01-08T21:23:57.413Z,22.70
2023-01-08T21:26:24.848Z,21.67
2023-01-08T21:28:53.149Z,22.23
2023-01-08T21:35:06.563Z,22.13
2023-01-08T21:37:34.605Z,20.02
2023-01-08T21:47:29.801Z,21.20
2023-01-08T21:50:05.972Z,21.15
2023-01-08T21:53:42.345Z,20.45
2023-01-08T21:56:36.160Z,20.15
2023-01-08T21:59:07.027Z,19.75
2023-01-08T22:02:41.011Z,19.88
2023-01-08T22:15:30.799Z,19.85
2023-01-08T22:17:57.788Z,18.90
2023-01-08T22:20:25.217Z,20.38
2023-01-08T22:22:52.454Z,20.20
2023-01-08T22:25:22.724Z,19.98
2023-01-08T22:27:54.326Z,19.05
2023-01-08T22:30:27.116Z,19.42
2023-01-08T22:34:35.995Z,20.40
2023-01-08T22:37:38.114Z,19.60
2023-01-08T22:40:06.089Z,20.05
2023-01-08T22:42:33.041Z,18.95
2023-01-08T22:45:00.204Z,21.15
2023-01-08T22:47:28.032Z,17.23
2023-01-08T22:49:55.026Z,19.20
2023-01-08T22:52:22.115Z,19.17
2023-01-08T22:54:53.060Z,19.45
2023-01-08T22:57:20.649Z,19.98
2023-01-08T22:59:47.995Z,19.77
2023-01-08T23:02:19.253Z,19.13
2023-01-08T23:04:53.221Z,19.50
2023-01-08T23:07:21.276Z,18.52
2023-01-08T23:09:48.890Z,18.52
2023-01-08T23:12:16.190Z,19.85
2023-01-08T23:14:44.867Z,19.75
2023-01-08T23:17:12.705Z,18.73
2023-01-08T23:20:08.494Z,18.45
2023-01-08T23:22:35.896Z,17.27
2023-01-08T23:25:03.573Z,19.92
2023-01-08T23:27:32.553Z,19.20
2023-01-08T23:29:59.741Z,18.73
2023-01-08T23:32:29.795Z,17.77
2023-01-08T23:34:57.192Z,18.35
2023-01-08T23:37:24.384Z,19.23
2023-01-08T23:39:51.625Z,18.10
2023-01-08T23:42:18.676Z,18.50
2023-01-08T23:44:45.724Z,19.58
2023-01-08T23:47:12.779Z,17.95
2023-01-08T23:49:39.745Z,18.63
2023-01-08T23:52:06.759Z,18.30
2023-01-08T23:54:35.828Z,18.95
